Time;durP1;ratioP1;P1;durP2;ratioP2;P2;SDS_P1;SDS_P2;PMS_P1;PMS_P2;Temp;Humidity;BMP_temperature;BMP_pressure;BME280_temperature;BME280_humidity;BME280_pressure;Samples;Min_cycle;Max_cycle;Signal;HPM_P1;HPM_P2
2021/08/02 00:00:47;;;;;;;;;3.00;1.00;;;;;19.66;52.86;101055.09;5032469;28;45565;-69
2021/08/02 00:03:21;;;;;;;;;2.00;2.00;;;;;19.61;53.04;101058.25;5032998;28;45484;-67
2021/08/02 00:05:52;;;;;;;;;3.00;1.00;;;;;19.58;53.09;101055.94;5027765;28;45589;-68
2021/08/02 00:08:21;;;;;;;;;3.00;1.67;;;;;19.57;53.56;101054.25;5024272;28;45412;-68
2021/08/02 00:10:49;;;;;;;;;3.00;2.00;;;;;19.54;53.29;101053.75;5036823;28;45463;-66
2021/08/02 00:13:21;;;;;;;;;2.00;1.67;;;;;19.54;53.53;101053.75;5036606;28;45500;-69
2021/08/02 00:15:47;;;;;;;;;5.67;2.00;;;;;19.53;53.50;101055.59;5034595;28;46243;-65
2021/08/02 00:18:13;;;;;;;;;1.33;1.33;;;;;19.49;53.65;101051.59;5019247;28;45241;-67
2021/08/02 00:20:39;;;;;;;;;2.67;2.00;;;;;19.47;53.96;101053.59;5036075;28;45503;-67
2021/08/02 00:23:09;;;;;;;;;1.33;1.33;;;;;19.42;53.84;101050.56;5034734;28;45602;-66
2021/08/02 00:25:35;;;;;;;;;3.00;2.00;;;;;19.42;53.80;101054.09;5034105;28;45378;-66
2021/08/02 00:28:02;;;;;;;;;2.67;1.00;;;;;19.38;53.99;101055.41;5034431;28;45393;-66
2021/08/02 00:30:28;;;;;;;;;1.67;1.67;;;;;19.35;54.45;101052.25;5034234;28;45372;-67
2021/08/02 00:32:53;;;;;;;;;1.67;1.00;;;;;19.29;54.60;101051.91;5035751;28;45424;-66
2021/08/02 00:35:21;;;;;;;;;0.67;0.67;;;;;19.26;54.83;101049.56;5034045;28;46118;-67
2021/08/02 00:38:03;;;;;;;;;2.00;1.00;;;;;19.21;54.89;101049.19;5034541;28;45371;-67
2021/08/02 00:40:49;;;;;;;;;1.67;1.00;;;;;19.21;54.61;101059.84;5031177;28;45450;-68
2021/08/02 00:43:33;;;;;;;;;1.00;1.00;;;;;19.17;55.09;101047.88;5031671;28;45453;-65
2021/08/02 00:45:59;;;;;;;;;1.00;1.00;;;;;19.23;54.78;101054.38;5034255;28;45403;-66
2021/08/02 00:48:29;;;;;;;;;3.67;1.00;;;;;19.30;54.96;101052.72;5033947;28;45515;-68
2021/08/02 00:51:00;;;;;;;;;0.67;0.67;;;;;19.32;54.65;101055.22;5029200;28;45417;-67
2021/08/02 00:53:27;;;;;;;;;3.00;1.33;;;;;19.32;54.98;101061.41;5034092;28;45626;-66
2021/08/02 00:56:01;;;;;;;;;1.33;1.33;;;;;19.29;54.84;101061.69;5033512;28;46804;-66
2021/08/02 00:58:29;;;;;;;;;3.33;1.33;;;;;19.25;55.38;101060.38;5033296;28;45376;-67
2021/08/02 01:00:56;;;;;;;;;2.00;1.00;;;;;19.21;54.96;101059.84;5033465;28;45587;-67
2021/08/02 01:03:22;;;;;;;;;1.00;1.00;;;;;19.16;55.09;101061.34;5034186;28;47827;-67
2021/08/02 01:05:49;;;;;;;;;1.67;1.33;;;;;19.12;55.29;101055.50;5034231;28;45317;-66
2021/08/02 01:08:24;;;;;;;;;1.00;1.00;;;;;19.08;55.48;101054.16;5033783;28;45706;-66
2021/08/02 01:10:53;;;;;;;;;2.00;1.00;;;;;19.05;55.63;101051.84;5032705;28;45478;-66
2021/08/02 01:13:21;;;;;;;;;1.00;0.67;;;;;19.01;55.95;101053.16;5033501;28;45533;-67
2021/08/02 01:15:51;;;;;;;;;2.75;2.75;;;;;18.96;55.96;101046.47;4988473;28;1240473;-67
2021/08/02 01:18:18;;;;;;;;;3.00;2.00;;;;;18.93;56.17;101052.13;5034423;28;45507;-67
2021/08/02 01:20:53;;;;;;;;;2.33;2.33;;;;;18.90;56.28;101046.28;5021362;28;45503;-66
2021/08/02 01:23:20;;;;;;;;;1.67;1.33;;;;;18.91;56.16;101051.44;5018906;28;45528;-66
2021/08/02 01:25:45;;;;;;;;;1.00;1.00;;;;;18.93;56.11;101053.97;5023287;28;46045;-66
2021/08/02 01:28:14;;;;;;;;;1.33;1.33;;;;;18.92;56.40;101055.78;5024048;28;45534;-67
2021/08/02 01:30:53;;;;;;;;;1.67;1.67;;;;;18.86;56.54;101059.03;5032440;28;45628;-66
2021/08/02 01:33:30;;;;;;;;;4.33;1.33;;;;;18.81;56.48;101061.34;5034159;28;45506;-67
2021/08/02 01:36:05;;;;;;;;;3.00;3.00;;;;;18.76;56.38;101061.00;5035681;28;46453;-66
2021/08/02 01:38:32;;;;;;;;;1.00;1.00;;;;;18.70;56.78;101051.84;5034637;28;45474;-67
2021/08/02 01:40:58;;;;;;;;;2.00;2.00;;;;;18.71;56.81;101065.97;5022303;28;45357;-68
2021/08/02 01:43:24;;;;;;;;;3.00;2.00;;;;;18.67;56.70;101062.81;5029831;28;45555;-68
2021/08/02 01:45:58;;;;;;;;;3.00;2.00;;;;;18.62;56.81;101060.63;5034381;28;46002;-67
2021/08/02 01:48:52;;;;;;;;;3.33;3.00;;;;;18.58;57.07;101063.75;5034133;28;45391;-67
2021/08/02 01:51:51;;;;;;;;;1.67;1.67;;;;;18.51;57.21;101058.22;5025654;28;45435;-68
2021/08/02 01:54:29;;;;;;;;;6.67;2.67;;;;;18.47;57.70;101054.22;5017440;28;45547;-68
2021/08/02 01:57:08;;;;;;;;;3.00;3.00;;;;;18.45;57.53;101056.22;5023233;28;45997;-67
2021/08/02 01:59:46;;;;;;;;;2.33;2.33;;;;;18.40;57.87;101055.84;5024101;28;45898;-68
2021/08/02 02:02:15;;;;;;;;;5.00;2.67;;;;;18.40;57.54;101055.84;5035607;28;45448;-68
2021/08/02 02:05:06;;;;;;;;;4.67;3.67;;;;;18.35;58.19;101063.47;5024043;28;45516;-67
2021/08/02 02:07:38;;;;;;;;;3.67;2.67;;;;;18.29;58.09;101068.41;5031338;28;46544;-67
2021/08/02 02:10:05;;;;;;;;;5.00;3.33;;;;;18.27;58.40;101062.41;5034370;28;45307;-67
2021/08/02 02:12:30;;;;;;;;;2.33;2.33;;;;;18.24;58.55;101062.72;5022696;28;45543;-68
2021/08/02 02:14:57;;;;;;;;;5.67;3.00;;;;;18.19;58.67;101070.34;5034881;28;45493;-69
2021/08/02 02:17:26;;;;;;;;;4.33;3.33;;;;;18.15;58.78;101069.00;5033445;28;45466;-68
2021/08/02 02:19:53;;;;;;;;;3.00;3.00;;;;;18.17;58.68;101069.66;5026980;28;45483;-68
2021/08/02 02:22:23;;;;;;;;;2.67;2.67;;;;;18.14;58.97;101059.34;5033043;28;45451;-67
2021/08/02 02:24:50;;;;;;;;;4.00;4.00;;;;;18.11;59.09;101062.28;5034081;28;45372;-68
2021/08/02 02:27:18;;;;;;;;;3.00;2.00;;;;;18.06;59.30;101060.13;5028400;28;45566;-68
2021/08/02 02:29:44;;;;;;;;;3.00;3.00;;;;;18.02;59.37;101057.91;5033967;28;45506;-68
2021/08/02 02:32:10;;;;;;;;;2.67;2.67;;;;;18.00;59.41;101058.06;5030557;28;45600;-67
2021/08/02 02:34:37;;;;;;;;;5.67;3.67;;;;;18.05;59.54;101054.97;5032638;28;45516;-68
2021/08/02 02:39:38;;;;;;;;;3.33;3.00;;;;;18.01;59.71;101050.91;5819938;22;46366;-62
2021/08/02 02:42:05;;;;;;;;;2.33;2.33;;;;;17.98;59.77;101050.25;5056899;22;45533;-64
2021/08/02 02:44:31;;;;;;;;;4.67;4.67;;;;;17.92;59.75;101053.50;5007064;28;45521;-64
2021/08/02 02:46:59;;;;;;;;;5.33;4.00;;;;;17.89;59.94;101055.63;5011358;28;47416;-63
2021/08/02 02:49:26;;;;;;;;;6.00;3.33;;;;;17.84;60.08;101055.25;4998654;28;45282;-65
2021/08/02 02:51:52;;;;;;;;;4.00;3.67;;;;;17.79;60.35;101055.72;5012035;28;45538;-64
2021/08/02 02:54:21;;;;;;;;;4.00;4.00;;;;;17.75;60.39;101063.16;5009030;28;45515;-65
2021/08/02 02:56:46;;;;;;;;;5.67;4.67;;;;;17.71;60.66;101052.97;5011126;28;46312;-64
2021/08/02 02:59:11;;;;;;;;;5.33;2.67;;;;;17.67;60.78;101057.78;5008481;28;45528;-64
2021/08/02 03:01:49;;;;;;;;;5.33;3.67;;;;;17.62;60.80;101058.22;5012807;28;45496;-63
2021/08/02 03:04:17;;;;;;;;;3.00;3.00;;;;;17.59;61.12;101058.53;5014468;28;45290;-63
2021/08/02 03:06:43;;;;;;;;;3.00;2.67;;;;;17.55;61.07;101062.47;5000911;28;46378;-63
2021/08/02 03:09:12;;;;;;;;;6.33;3.67;;;;;17.51;61.49;101061.09;5005630;28;45384;-62
2021/08/02 03:11:38;;;;;;;;;5.33;4.00;;;;;17.49;61.58;101058.59;5003337;28;45505;-63
2021/08/02 03:14:05;;;;;;;;;3.33;3.33;;;;;17.45;61.66;101059.91;5007229;28;45380;-64
2021/08/02 03:16:32;;;;;;;;;4.67;3.00;;;;;17.42;61.90;101056.69;5005792;28;47211;-63
2021/08/02 03:18:57;;;;;;;;;5.00;5.00;;;;;17.40;61.93;101061.34;5012608;28;45450;-64
2021/08/02 03:21:22;;;;;;;;;5.67;5.00;;;;;17.37;61.87;101064.28;5009493;28;45345;-64
2021/08/02 03:24:01;;;;;;;;;5.67;4.33;;;;;17.34;62.15;101061.94;5009517;28;45592;-64
2021/08/02 03:26:32;;;;;;;;;5.00;4.67;;;;;17.31;62.30;101069.19;5012507;28;46315;-64
2021/08/02 03:29:11;;;;;;;;;5.00;3.67;;;;;17.29;62.50;101067.69;5014239;28;45364;-63
2021/08/02 03:31:45;;;;;;;;;3.00;3.00;;;;;17.28;62.65;101072.16;5009567;28;45326;-65
2021/08/02 03:34:17;;;;;;;;;6.67;4.00;;;;;17.26;62.92;101071.47;5013621;28;45484;-64
2021/08/02 03:36:43;;;;;;;;;6.67;5.00;;;;;17.23;63.00;101074.44;5014007;28;46202;-64
2021/08/02 03:39:11;;;;;;;;;5.33;3.33;;;;;17.21;62.59;101075.56;5013401;28;45440;-66
2021/08/02 03:41:41;;;;;;;;;4.00;4.00;;;;;17.20;63.14;101080.03;5013457;28;45482;-63
2021/08/02 03:44:10;;;;;;;;;2.33;2.33;;;;;17.21;63.11;101081.69;4998386;28;45365;-65
2021/08/02 03:46:35;;;;;;;;;6.33;5.33;;;;;17.20;63.06;101080.03;5014902;28;45476;-65
2021/08/02 03:49:01;;;;;;;;;8.33;5.33;;;;;17.17;63.11;101083.00;5014383;28;45433;-63
2021/08/02 03:51:33;;;;;;;;;7.67;6.33;;;;;17.17;63.37;101085.63;5014196;28;45382;-64
2021/08/02 03:53:59;;;;;;;;;3.33;3.33;;;;;17.15;63.48;101077.84;5013225;28;45590;-64
2021/08/02 03:56:24;;;;;;;;;6.33;4.00;;;;;17.13;63.29;101084.28;5013414;28;49800;-64
2021/08/02 03:58:50;;;;;;;;;6.33;5.67;;;;;17.09;63.71;101089.03;5014316;28;45587;-66
2021/08/02 04:01:15;;;;;;;;;8.00;6.00;;;;;17.08;63.87;101091.84;5014374;28;45384;-64
2021/08/02 04:03:41;;;;;;;;;9.00;6.00;;;;;17.06;63.80;101091.16;5013499;28;45254;-64
2021/08/02 04:06:07;;;;;;;;;6.00;6.00;;;;;17.04;63.79;101088.63;5013523;28;47149;-64
2021/08/02 04:08:33;;;;;;;;;5.33;4.33;;;;;17.04;63.94;101091.28;5012967;28;45491;-64
2021/08/02 04:10:58;;;;;;;;;4.33;4.00;;;;;17.04;63.92;101087.81;5028821;28;45313;-66
2021/08/02 04:13:24;;;;;;;;;7.00;5.67;;;;;17.04;64.07;101101.09;5014829;28;45432;-66
2021/08/02 04:15:49;;;;;;;;;9.33;4.67;;;;;17.01;64.23;101099.56;5013454;28;46495;-65
2021/08/02 04:18:15;;;;;;;;;6.33;6.33;;;;;17.02;64.54;101103.03;5013632;28;45483;-65
2021/08/02 04:20:42;;;;;;;;;6.00;4.33;;;;;17.01;64.56;101096.06;5013443;28;45787;-65
2021/08/02 04:23:08;;;;;;;;;4.67;4.67;;;;;16.99;64.38;101101.50;5013607;28;45479;-64
2021/08/02 04:25:33;;;;;;;;;5.00;5.00;;;;;16.99;64.66;101099.72;5013875;28;45353;-64
2021/08/02 04:27:58;;;;;;;;;7.33;5.00;;;;;16.99;64.56;101107.69;5014303;28;45400;-69
2021/08/02 04:30:24;;;;;;;;;6.67;5.00;;;;;17.00;64.76;101119.13;5016880;28;45451;-64
2021/08/02 04:32:49;;;;;;;;;4.00;4.00;;;;;17.02;64.73;101117.16;5016723;28;45430;-65
2021/08/02 04:35:14;;;;;;;;;5.67;5.00;;;;;17.03;64.81;101120.63;5003812;28;45622;-69
2021/08/02 04:37:40;;;;;;;;;3.67;2.67;;;;;17.01;64.67;101117.28;5016591;28;45433;-64
2021/08/02 04:40:06;;;;;;;;;4.33;3.33;;;;;17.05;64.23;101124.81;5017191;28;47558;-63
2021/08/02 04:42:36;;;;;;;;;4.67;4.67;;;;;17.05;64.85;101118.69;5016053;28;45449;-63
2021/08/02 04:45:06;;;;;;;;;4.00;4.00;;;;;17.04;64.86;101120.50;5015249;28;46250;-63
2021/08/02 04:47:32;;;;;;;;;6.33;5.33;;;;;17.06;65.02;101123.00;5016869;28;45537;-64
2021/08/02 04:49:57;;;;;;;;;6.00;6.00;;;;;17.05;64.84;101119.50;5031389;28;45450;-64
2021/08/02 04:52:23;;;;;;;;;4.67;4.67;;;;;17.08;64.82;101123.69;5016777;28;45527;-64
2021/08/02 04:54:49;;;;;;;;;3.67;2.33;;;;;17.07;65.01;101114.06;5010537;28;47548;-63
2021/08/02 04:57:15;;;;;;;;;6.33;5.67;;;;;17.10;64.98;101116.41;5016039;28;45293;-63
2021/08/02 04:59:42;;;;;;;;;4.33;3.33;;;;;17.14;64.94;101112.50;5015548;28;45468;-62
2021/08/02 05:02:08;;;;;;;;;4.67;3.67;;;;;17.16;64.59;101115.81;5004786;28;45608;-64
2021/08/02 05:04:33;;;;;;;;;3.00;3.00;;;;;17.18;64.69;101108.56;5017782;28;45438;-65
2021/08/02 05:06:58;;;;;;;;;4.00;4.00;;;;;17.21;64.54;101110.91;5015263;28;45549;-64
2021/08/02 05:09:24;;;;;;;;;5.00;4.00;;;;;17.25;64.54;101119.41;5015372;28;45391;-64
2021/08/02 05:11:51;;;;;;;;;4.00;4.00;;;;;17.28;64.57;101122.63;5016377;28;45495;-63
2021/08/02 05:14:16;;;;;;;;;5.00;5.00;;;;;17.31;64.61;101118.81;5016338;28;46712;-64
2021/08/02 05:16:43;;;;;;;;;5.67;5.67;;;;;17.34;64.38;101128.31;5016440;28;45515;-63
2021/08/02 05:19:09;;;;;;;;;5.67;5.67;;;;;17.36;64.31;101131.63;5015604;28;45438;-64
2021/08/02 05:21:34;;;;;;;;;4.33;4.33;;;;;17.37;64.40;101128.84;5015922;28;45435;-64
2021/08/02 05:24:00;;;;;;;;;6.00;4.67;;;;;17.38;64.38;101127.84;5016035;28;46368;-65
2021/08/02 05:26:25;;;;;;;;;4.33;4.33;;;;;17.40;64.35;101128.56;5012003;28;45765;-64
2021/08/02 05:28:50;;;;;;;;;4.00;3.67;;;;;17.43;63.99;101127.41;5014083;28;45422;-63
2021/08/02 05:31:16;;;;;;;;;5.00;4.67;;;;;17.45;64.38;101136.91;5016801;28;45359;-63
2021/08/02 05:33:41;;;;;;;;;4.67;4.00;;;;;17.52;64.21;101128.34;5010020;28;46144;-64
2021/08/02 05:36:07;;;;;;;;;7.00;4.33;;;;;17.59;64.08;101132.91;5014333;28;45536;-63
2021/08/02 05:38:33;;;;;;;;;11.00;5.33;;;;;17.69;64.37;101142.63;5015698;28;45687;-64
2021/08/02 05:40:58;;;;;;;;;7.00;5.33;;;;;17.78;63.81;101131.09;5015067;28;45592;-66
2021/08/02 05:43:24;;;;;;;;;5.00;5.00;;;;;17.96;63.52;101144.41;5016491;28;46146;-63
2021/08/02 05:45:50;;;;;;;;;6.00;5.00;;;;;18.21;63.51;101142.78;5015266;28;45302;-62
2021/08/02 05:48:16;;;;;;;;;7.00;4.00;;;;;18.60;62.86;101137.09;5015784;28;45545;-65
2021/08/02 05:50:41;;;;;;;;;6.00;3.33;;;;;19.33;62.19;101139.47;5014713;28;45470;-64
2021/08/02 05:53:06;;;;;;;;;3.33;3.33;;;;;20.24;61.17;101135.97;5029520;28;48134;-63
2021/08/02 05:55:32;;;;;;;;;5.67;5.67;;;;;21.16;59.10;101137.44;5016473;28;45308;-63
2021/08/02 05:57:57;;;;;;;;;4.67;4.67;;;;;21.73;57.09;101149.69;5015673;28;45262;-65
2021/08/02 06:00:23;;;;;;;;;3.67;3.00;;;;;21.90;56.42;101153.06;5015111;28;45523;-64
2021/08/02 06:02:49;;;;;;;;;4.33;3.00;;;;;21.80;55.84;101147.13;5013629;28;47339;-63
2021/08/02 06:05:14;;;;;;;;;4.00;4.00;;;;;21.61;55.30;101148.41;5015125;28;45246;-64
2021/08/02 06:07:42;;;;;;;;;5.00;3.00;;;;;21.40;55.60;101152.50;5016473;28;45355;-64
2021/08/02 06:10:09;;;;;;;;;4.67;4.00;;;;;21.24;55.74;101150.75;5015069;28;45549;-64
2021/08/02 06:12:35;;;;;;;;;5.67;3.33;;;;;21.05;55.75;101154.66;5015158;28;45597;-63
2021/08/02 06:15:00;;;;;;;;;4.67;4.00;;;;;20.89;55.96;101155.56;5015111;28;45499;-64
2021/08/02 06:17:25;;;;;;;;;4.33;4.33;;;;;20.74;55.91;101157.25;5015622;28;45435;-64
2021/08/02 06:19:51;;;;;;;;;4.00;4.00;;;;;20.59;56.44;101159.78;5015013;28;45421;-63
2021/08/02 06:22:16;;;;;;;;;6.00;5.00;;;;;20.47;56.84;101151.25;5015478;28;46457;-65
2021/08/02 06:24:42;;;;;;;;;3.00;3.00;;;;;20.43;57.02;101160.59;5014897;28;45367;-63
2021/08/02 06:27:08;;;;;;;;;4.00;3.00;;;;;20.36;57.06;101164.97;5015260;28;45431;-63
2021/08/02 06:29:33;;;;;;;;;4.00;4.00;;;;;20.31;57.30;101167.31;5014484;28;45407;-63
2021/08/02 06:31:59;;;;;;;;;3.33;3.33;;;;;20.28;56.64;101163.97;5014644;28;46011;-63
2021/08/02 06:34:24;;;;;;;;;5.33;4.67;;;;;20.25;57.15;101164.31;5015625;28;45332;-64
2021/08/02 06:36:49;;;;;;;;;3.00;2.00;;;;;20.22;57.14;101167.28;5014931;28;45436;-63
2021/08/02 06:39:15;;;;;;;;;75.75;61.00;;;;;20.18;57.12;101168.63;5015408;28;45361;-63
2021/08/02 06:41:40;;;;;;;;;35.33;31.67;;;;;20.18;57.36;101170.47;5015393;28;45419;-64
2021/08/02 06:44:06;;;;;;;;;9.33;9.33;;;;;20.15;57.26;101166.31;5015140;28;45280;-63
2021/08/02 06:46:31;;;;;;;;;8.33;7.00;;;;;20.16;56.76;101169.78;5015596;28;45254;-64
2021/08/02 06:48:56;;;;;;;;;6.00;6.00;;;;;20.18;57.22;101167.81;5009147;28;45705;-64
2021/08/02 06:51:22;;;;;;;;;3.33;3.33;;;;;20.22;57.71;101177.94;5013984;28;45555;-65
2021/08/02 06:53:47;;;;;;;;;18.67;16.67;;;;;20.27;57.54;101172.94;5014631;28;45534;-63
2021/08/02 06:56:13;;;;;;;;;78.00;59.50;;;;;20.32;56.89;101169.78;5014446;28;45604;-63
2021/08/02 06:58:38;;;;;;;;;12.33;10.67;;;;;20.36;56.83;101175.63;5014841;28;45362;-64
2021/08/02 07:01:03;;;;;;;;;6.00;4.33;;;;;20.35;56.66;101174.78;5014787;28;45494;-63
2021/08/02 07:03:29;;;;;;;;;5.00;5.00;;;;;20.38;56.83;101174.47;5014338;28;45424;-65
2021/08/02 07:05:54;;;;;;;;;7.00;4.00;;;;;20.40;56.40;101176.97;5014199;28;45581;-64
2021/08/02 07:08:19;;;;;;;;;6.00;4.67;;;;;20.43;56.45;101181.94;5014501;28;45640;-63
2021/08/02 07:10:46;;;;;;;;;35.33;26.67;;;;;20.45;56.73;101178.13;5014156;28;45879;-64
2021/08/02 07:13:11;;;;;;;;;14.67;13.67;;;;;20.54;56.63;101178.94;5014741;28;45546;-63
2021/08/02 07:15:36;;;;;;;;;18.67;13.33;;;;;20.60;56.23;101172.94;5007891;28;45369;-64
2021/08/02 07:18:02;;;;;;;;;8.00;8.00;;;;;20.64;56.59;101172.59;5013358;28;45373;-63
2021/08/02 07:20:27;;;;;;;;;5.00;3.67;;;;;20.67;56.55;101173.09;5013672;28;46071;-65
2021/08/02 07:22:53;;;;;;;;;6.33;5.00;;;;;20.70;55.99;101180.78;5014422;28;45610;-64
2021/08/02 07:25:19;;;;;;;;;5.00;4.00;;;;;20.67;56.18;101175.75;5015175;28;45439;-63
2021/08/02 07:27:44;;;;;;;;;5.67;4.00;;;;;20.65;56.10;101184.94;5014934;28;45511;-63
2021/08/02 07:30:10;;;;;;;;;13.67;9.00;;;;;20.63;55.96;101181.59;5013200;28;46182;-64
2021/08/02 07:32:36;;;;;;;;;6.33;6.33;;;;;20.68;56.04;101179.25;5013749;28;45325;-64
2021/08/02 07:35:02;;;;;;;;;5.00;4.67;;;;;20.74;55.76;101181.28;5014354;28;45466;-63
2021/08/02 07:37:27;;;;;;;;;6.00;6.00;;;;;20.71;55.70;101176.28;5014482;28;45432;-63
2021/08/02 07:39:53;;;;;;;;;7.33;5.67;;;;;20.69;56.06;101176.44;5013261;28;46447;-65
2021/08/02 07:42:18;;;;;;;;;6.00;3.00;;;;;20.68;55.67;101180.09;5014094;28;45530;-63
2021/08/02 07:44:43;;;;;;;;;7.33;5.00;;;;;20.65;56.02;101176.94;5013594;28;49293;-65
2021/08/02 07:47:09;;;;;;;;;4.00;4.00;;;;;20.65;56.02;101180.44;5013524;28;45455;-64
2021/08/02 07:49:34;;;;;;;;;7.67;6.67;;;;;20.71;55.48;101184.31;5014560;28;46001;-65
2021/08/02 07:51:59;;;;;;;;;9.00;6.00;;;;;20.82;55.26;101181.25;5013241;28;45479;-63
2021/08/02 07:54:25;;;;;;;;;6.67;4.00;;;;;20.89;55.13;101181.44;5012522;28;45434;-67
2021/08/02 07:56:51;;;;;;;;;6.00;4.33;;;;;21.05;55.00;101180.53;5013929;28;46005;-63
2021/08/02 07:59:16;;;;;;;;;6.33;5.00;;;;;21.12;54.67;101181.53;5013369;28;45561;-64
2021/08/02 08:01:41;;;;;;;;;6.00;5.00;;;;;21.14;54.57;101187.50;5013464;28;45344;-63
2021/08/02 08:04:07;;;;;;;;;3.00;3.00;;;;;21.17;54.26;101176.47;5016187;28;45480;-63
2021/08/02 08:06:32;;;;;;;;;5.00;4.00;;;;;21.27;54.36;101173.59;5013901;28;45514;-63
2021/08/02 08:08:57;;;;;;;;;5.00;5.00;;;;;21.31;54.23;101169.56;5016674;28;46013;-64
2021/08/02 08:11:23;;;;;;;;;10.67;4.00;;;;;21.37;53.81;101176.09;5017299;28;45506;-66
2021/08/02 08:13:48;;;;;;;;;5.67;5.00;;;;;21.40;53.93;101173.06;5017036;28;45312;-64
2021/08/02 08:16:14;;;;;;;;;5.00;3.67;;;;;21.43;53.78;101178.03;5017400;28;45531;-64
2021/08/02 08:18:39;;;;;;;;;5.00;4.00;;;;;21.46;53.54;101172.34;5016644;28;46098;-64
2021/08/02 08:21:04;;;;;;;;;5.33;5.33;;;;;21.52;53.35;101177.00;5016275;28;45352;-64
2021/08/02 08:23:32;;;;;;;;;6.00;5.00;;;;;21.61;53.30;101175.13;5015790;28;45508;-65
2021/08/02 08:25:58;;;;;;;;;3.00;3.00;;;;;21.66;52.62;101166.59;5017118;28;45271;-64
2021/08/02 08:28:23;;;;;;;;;4.00;4.00;;;;;21.73;53.15;101172.88;5017665;28;46122;-64
2021/08/02 08:30:49;;;;;;;;;7.00;5.33;;;;;21.78;52.81;101175.03;5016022;28;45510;-64
2021/08/02 08:33:14;;;;;;;;;7.33;4.67;;;;;21.89;52.29;101175.47;5016885;28;45597;-64
2021/08/02 08:35:39;;;;;;;;;5.00;5.00;;;;;22.02;52.71;101171.38;5016721;28;45351;-64
2021/08/02 08:38:06;;;;;;;;;3.67;3.67;;;;;22.18;52.36;101176.56;5016597;28;46299;-64
2021/08/02 08:40:33;;;;;;;;;4.33;2.67;;;;;22.32;52.07;101182.16;5017048;28;45412;-65
2021/08/02 08:42:58;;;;;;;;;5.00;3.67;;;;;22.38;51.36;101174.28;5016502;28;45510;-66
2021/08/02 08:45:24;;;;;;;;;4.00;4.00;;;;;22.38;51.49;101176.94;5015954;28;45567;-64
2021/08/02 08:47:51;;;;;;;;;3.00;3.00;;;;;22.33;51.25;101175.81;5015934;28;46335;-64
2021/08/02 08:50:18;;;;;;;;;4.00;3.00;;;;;22.28;51.27;101172.84;5016543;28;45378;-64
2021/08/02 08:52:45;;;;;;;;;5.00;2.67;;;;;22.28;51.29;101176.34;5016747;28;45589;-63
2021/08/02 08:55:13;;;;;;;;;6.00;4.00;;;;;22.28;51.31;101178.19;5017131;28;45363;-63
2021/08/02 08:57:40;;;;;;;;;3.33;3.33;;;;;22.28;51.32;101180.88;5015994;28;47956;-64
2021/08/02 09:00:18;;;;;;;;;3.00;3.00;;;;;22.29;51.52;101183.38;5016421;28;45416;-64
2021/08/02 09:02:43;;;;;;;;;4.00;4.00;;;;;22.30;51.81;101173.47;5016831;28;45435;-64
2021/08/02 09:05:09;;;;;;;;;4.67;4.67;;;;;22.32;51.54;101171.47;5030925;28;45523;-63
2021/08/02 09:07:40;;;;;;;;;4.00;4.00;;;;;22.39;51.49;101172.41;5017463;28;46082;-64
2021/08/02 09:10:08;;;;;;;;;6.00;4.00;;;;;22.50;51.60;101177.34;5016326;28;45351;-64
2021/08/02 09:12:34;;;;;;;;;5.67;4.00;;;;;22.64;51.27;101180.22;5012659;28;45419;-64
2021/08/02 09:15:04;;;;;;;;;8.67;4.00;;;;;22.72;50.81;101178.28;5016803;28;46934;-64
2021/08/02 09:17:40;;;;;;;;;4.00;4.00;;;;;22.79;50.38;101177.56;5016880;28;46327;-64
2021/08/02 09:20:16;;;;;;;;;3.00;3.00;;;;;22.81;49.91;101180.88;5000727;28;45317;-65
2021/08/02 09:22:41;;;;;;;;;5.00;2.33;;;;;22.82;50.10;101180.72;5013592;28;45347;-65
2021/08/02 09:25:15;;;;;;;;;2.67;2.67;;;;;22.88;49.98;101182.63;5015459;28;45522;-63
2021/08/02 09:27:42;;;;;;;;;4.33;3.00;;;;;22.94;49.46;101180.22;5015923;28;45460;-64
2021/08/02 09:30:12;;;;;;;;;3.67;3.33;;;;;22.88;49.01;101174.59;5016199;28;45412;-65
2021/08/02 09:32:51;;;;;;;;;3.00;3.00;;;;;22.85;49.59;101183.00;5015272;28;45684;-65
2021/08/02 09:35:31;;;;;;;;;4.67;3.00;;;;;22.86;49.26;101168.63;5001970;28;45532;-66
2021/08/02 09:37:59;;;;;;;;;6.00;4.00;;;;;22.88;49.29;101177.28;5016154;28;45501;-65
2021/08/02 09:40:25;;;;;;;;;4.00;4.00;;;;;22.89;49.11;101178.94;5015255;28;45341;-64
2021/08/02 09:42:57;;;;;;;;;4.00;4.00;;;;;22.94;48.90;101178.41;5015963;28;45366;-65
2021/08/02 09:45:25;;;;;;;;;4.00;2.67;;;;;22.95;49.06;101176.53;5016012;28;45474;-64
2021/08/02 09:47:51;;;;;;;;;3.33;3.33;;;;;22.94;48.85;101173.03;5015990;28;47296;-65
2021/08/02 09:50:30;;;;;;;;;6.33;4.00;;;;;22.90;48.96;101169.91;5016157;28;45373;-64
2021/08/02 09:52:57;;;;;;;;;3.67;2.67;;;;;22.92;49.10;101172.38;5016517;28;45502;-65
2021/08/02 09:55:23;;;;;;;;;2.00;2.00;;;;;22.98;48.39;101176.19;5017303;28;45357;-65
2021/08/02 09:57:51;;;;;;;;;3.00;1.67;;;;;23.04;48.76;101170.06;5015558;28;45679;-64
2021/08/02 10:00:17;;;;;;;;;3.67;3.67;;;;;23.11;48.37;101165.66;5015355;28;45522;-67
2021/08/02 10:02:48;;;;;;;;;3.00;3.00;;;;;23.19;48.82;101170.09;5015847;28;45491;-63
2021/08/02 10:05:18;;;;;;;;;7.00;5.00;;;;;23.25;48.35;101166.69;5014643;28;45365;-65
2021/08/02 10:07:45;;;;;;;;;3.67;3.67;;;;;23.33;48.16;101169.25;5015153;28;45729;-66
2021/08/02 10:10:12;;;;;;;;;3.33;3.33;;;;;23.34;47.16;101168.22;5014633;28;45494;-64
2021/08/02 10:12:47;;;;;;;;;5.33;4.33;;;;;23.33;47.59;101163.88;5015724;28;45475;-64
2021/08/02 10:15:17;;;;;;;;;7.00;6.00;;;;;23.31;46.76;101163.22;5014516;28;45566;-64
2021/08/02 10:17:50;;;;;;;;;9.00;9.00;;;;;23.32;47.07;101159.53;5015555;28;46135;-65
2021/08/02 10:20:32;;;;;;;;;3.00;3.00;;;;;23.33;47.26;101163.06;5015651;28;45601;-65
2021/08/02 10:22:59;;;;;;;;;31.00;29.33;;;;;23.36;47.46;101162.69;5015872;28;45443;-67
2021/08/02 10:25:33;;;;;;;;;11.33;10.00;;;;;23.34;47.31;101159.34;5014923;28;45360;-65
2021/08/02 10:28:06;;;;;;;;;16.00;14.00;;;;;23.35;47.46;101166.38;5036365;22;45296;-65
2021/08/02 10:30:31;;;;;;;;;15.33;14.00;;;;;23.40;46.61;101153.22;5034038;28;45573;-64
2021/08/02 10:32:57;;;;;;;;;8.00;8.00;;;;;23.48;46.47;101161.19;5027066;28;45505;-64
2021/08/02 10:35:36;;;;;;;;;6.00;6.00;;;;;23.51;46.34;101165.34;5035436;28;45312;-63
2021/08/02 10:38:05;;;;;;;;;7.00;5.00;;;;;23.53;46.29;101158.78;5035350;28;45271;-62
2021/08/02 10:40:42;;;;;;;;;6.33;6.33;;;;;23.51;45.64;101166.16;5036377;28;45370;-63
2021/08/02 10:43:08;;;;;;;;;17.67;12.67;;;;;23.50;46.12;101161.81;5035839;28;45407;-62
2021/08/02 10:45:34;;;;;;;;;2.67;2.33;;;;;23.53;45.56;101157.91;5035243;28;45313;-63
2021/08/02 10:48:00;;;;;;;;;6.33;4.00;;;;;23.57;45.78;101151.16;5034969;28;47109;-63
2021/08/02 10:50:30;;;;;;;;;3.67;3.67;;;;;23.65;46.00;101159.09;5034562;28;45427;-63
2021/08/02 10:52:56;;;;;;;;;4.00;4.00;;;;;23.73;45.25;101158.16;5035173;28;45276;-63
2021/08/02 10:55:25;;;;;;;;;4.00;3.00;;;;;23.78;46.00;101154.88;5035637;28;45240;-63
2021/08/02 10:57:59;;;;;;;;;5.67;4.00;;;;;23.80;45.38;101153.66;5034560;28;46292;-63
2021/08/02 11:00:25;;;;;;;;;8.33;6.33;;;;;23.86;45.49;101158.28;5034191;28;45466;-61
2021/08/02 11:02:53;;;;;;;;;2.67;2.67;;;;;23.87;45.71;101159.94;5032936;28;45311;-63
2021/08/02 11:05:20;;;;;;;;;10.00;10.00;;;;;23.82;44.58;101159.69;5034969;28;45513;-63
2021/08/02 11:07:47;;;;;;;;;4.00;3.00;;;;;23.77;44.59;101164.78;5034176;28;46985;-63
2021/08/02 11:10:16;;;;;;;;;7.00;5.33;;;;;23.72;43.93;101165.34;5034583;28;45386;-63
2021/08/02 11:12:46;;;;;;;;;2.00;2.00;;;;;23.68;44.34;101157.88;5032680;28;45541;-64
2021/08/02 11:15:12;;;;;;;;;3.00;2.33;;;;;23.62;44.58;101156.78;5031712;28;45623;-63
2021/08/02 11:17:41;;;;;;;;;3.00;2.00;;;;;23.61;44.94;101154.28;5034510;28;46021;-62
2021/08/02 11:20:09;;;;;;;;;3.00;2.00;;;;;23.64;45.27;101156.59;5022069;28;45479;-63
2021/08/02 11:22:56;;;;;;;;;2.00;2.00;;;;;23.65;45.33;101145.69;5030761;28;45446;-64
2021/08/02 11:25:30;;;;;;;;;3.33;3.00;;;;;23.67;45.05;101148.19;5033142;28;45475;-64
2021/08/02 11:27:58;;;;;;;;;2.00;1.33;;;;;23.71;44.98;101154.81;5034176;28;47186;-62
2021/08/02 11:30:25;;;;;;;;;1.67;1.67;;;;;23.70;44.77;101147.78;5031388;28;45478;-61